Time;durP1;ratioP1;P1;durP2;ratioP2;P2;SDS_P1;SDS_P2;PMS_P1;PMS_P2;Temp;Humidity;BMP_temperature;BMP_pressure;BME280_temperature;BME280_humidity;BME280_pressure;Samples;Min_cycle;Max_cycle;Signal;HPM_P1;HPM_P2
2023/05/25 00:02:05;;;;;;;4.65;2.50;;;9.70;63.20;;;;;;4980152;28;20031;-75
2023/05/25 00:04:33;;;;;;;5.70;2.33;;;9.60;63.30;;;;;;4981480;28;20022;-75
2023/05/25 00:06:59;;;;;;;6.82;2.22;;;9.60;63.30;;;;;;4980945;28;20595;-75
2023/05/25 00:09:25;;;;;;;8.50;2.10;;;9.60;63.60;;;;;;4982609;28;20046;-76
2023/05/25 00:11:51;;;;;;;5.28;2.30;;;9.50;63.50;;;;;;4963289;28;20033;-75
2023/05/25 00:14:17;;;;;;;5.47;2.15;;;9.50;63.80;;;;;;4979346;28;20660;-75
2023/05/25 00:16:44;;;;;;;3.50;1.90;;;9.50;63.80;;;;;;4963824;28;20057;-75
2023/05/25 00:19:09;;;;;;;4.22;1.98;;;9.50;64.00;;;;;;4965321;28;20389;-75
2023/05/25 00:21:37;;;;;;;4.53;1.92;;;9.40;64.00;;;;;;4962821;28;20607;-75
2023/05/25 00:24:05;;;;;;;7.68;2.10;;;9.30;64.10;;;;;;4949257;28;20089;-76
2023/05/25 00:26:31;;;;;;;4.20;1.92;;;9.30;64.20;;;;;;4981262;28;20410;-76
2023/05/25 00:28:59;;;;;;;4.53;2.13;;;9.30;64.30;;;;;;4978399;28;20038;-76
2023/05/25 00:31:25;;;;;;;4.70;2.45;;;9.30;64.40;;;;;;4963715;28;20054;-75
2023/05/25 00:33:50;;;;;;;5.05;2.22;;;9.30;64.60;;;;;;4963734;28;20544;-76
2023/05/25 00:36:16;;;;;;;9.00;2.42;;;9.20;64.50;;;;;;4981853;28;20512;-76
2023/05/25 00:38:41;;;;;;;5.93;2.22;;;9.20;64.70;;;;;;4978453;28;20081;-75
2023/05/25 00:41:07;;;;;;;4.65;1.90;;;9.10;64.70;;;;;;4979415;28;20034;-75
2023/05/25 00:43:32;;;;;;;4.57;2.25;;;9.10;64.80;;;;;;4981293;28;20801;-76
2023/05/25 00:45:58;;;;;;;4.78;2.00;;;9.00;64.80;;;;;;4980116;28;20036;-75
2023/05/25 00:48:25;;;;;;;8.07;2.10;;;9.00;65.00;;;;;;4980461;28;20030;-75
2023/05/25 00:50:52;;;;;;;6.78;2.60;;;8.90;65.00;;;;;;4967481;28;20042;-76
2023/05/25 00:53:18;;;;;;;4.50;1.80;;;8.90;65.20;;;;;;4981469;28;20025;-76
2023/05/25 00:55:48;;;;;;;7.00;2.10;;;8.90;65.40;;;;;;4997267;28;20034;-76
2023/05/25 00:58:13;;;;;;;8.27;2.28;;;8.90;65.50;;;;;;4968353;28;20030;-76
2023/05/25 01:00:40;;;;;;;7.22;1.88;;;8.90;65.60;;;;;;4982104;28;20116;-76
2023/05/25 01:03:10;;;;;;;4.70;2.05;;;8.90;65.70;;;;;;4977610;28;20093;-75
2023/05/25 01:05:36;;;;;;;5.05;2.22;;;8.90;65.80;;;;;;4977374;28;20026;-75
2023/05/25 01:08:02;;;;;;;5.65;2.00;;;8.80;65.70;;;;;;4965751;28;20485;-76
2023/05/25 01:10:29;;;;;;;4.85;2.55;;;8.80;65.90;;;;;;4966591;28;20037;-76
2023/05/25 01:12:55;;;;;;;7.10;2.20;;;8.80;65.80;;;;;;4980873;28;20034;-76
2023/05/25 01:15:20;;;;;;;5.93;2.33;;;8.80;65.90;;;;;;4951895;28;20534;-76
2023/05/25 01:17:47;;;;;;;6.63;2.45;;;8.80;66.00;;;;;;4965937;28;20045;-75
2023/05/25 01:20:12;;;;;;;3.92;1.88;;;8.70;66.00;;;;;;4965497;28;20068;-75
2023/05/25 01:23:07;;;;;;;4.32;2.10;;;8.70;66.10;;;;;;4963440;28;20026;-75
2023/05/25 01:25:41;;;;;;;6.78;2.05;;;8.70;66.50;;;;;;4978469;28;20116;-75
2023/05/25 01:28:17;;;;;;;8.35;2.30;;;8.60;66.40;;;;;;4979982;28;20648;-75
2023/05/25 01:30:44;;;;;;;9.55;2.35;;;8.60;66.50;;;;;;4981466;28;20463;-77
2023/05/25 01:33:10;;;;;;;3.22;2.03;;;8.60;66.60;;;;;;4948104;28;20561;-78
2023/05/25 01:35:35;;;;;;;6.63;2.08;;;8.60;66.70;;;;;;4981879;28;20037;-77
2023/05/25 01:38:01;;;;;;;6.38;2.15;;;8.50;66.70;;;;;;4967077;28;20029;-77
2023/05/25 01:40:27;;;;;;;6.35;2.40;;;8.50;66.80;;;;;;4979498;28;20036;-76
2023/05/25 01:42:52;;;;;;;5.53;2.13;;;8.50;66.80;;;;;;4980333;28;20029;-77
2023/05/25 01:45:18;;;;;;;5.60;2.30;;;8.50;66.80;;;;;;4981015;28;20034;-77
2023/05/25 01:48:11;;;;;;;6.18;2.05;;;8.40;66.80;;;;;;4965512;28;20037;-76
2023/05/25 01:51:00;;;;;;;6.57;2.10;;;8.30;67.20;;;;;;4977939;28;20054;-76
2023/05/25 01:53:36;;;;;;;6.47;2.20;;;8.30;67.40;;;;;;4970712;28;20038;-76
2023/05/25 01:56:04;;;;;;;5.57;1.98;;;8.20;67.20;;;;;;4978033;28;20038;-76
2023/05/25 01:58:33;;;;;;;4.80;2.13;;;8.20;67.20;;;;;;4977660;28;20030;-76
2023/05/25 02:00:59;;;;;;;5.32;2.20;;;8.20;67.50;;;;;;4960251;28;20027;-76
2023/05/25 02:03:24;;;;;;;4.80;2.55;;;8.20;67.50;;;;;;4961145;28;20026;-76
2023/05/25 02:05:50;;;;;;;3.63;2.00;;;8.20;67.60;;;;;;4979829;28;20489;-76
2023/05/25 02:08:16;;;;;;;8.63;2.83;;;8.20;67.60;;;;;;4961979;28;20030;-76
2023/05/25 02:10:41;;;;;;;6.07;2.15;;;8.20;67.70;;;;;;4977353;28;20820;-76
2023/05/25 02:13:07;;;;;;;6.05;2.40;;;8.10;67.70;;;;;;4978910;28;20034;-76
2023/05/25 02:15:32;;;;;;;4.60;2.03;;;8.10;67.80;;;;;;4975512;28;20029;-76
2023/05/25 02:17:59;;;;;;;7.25;3.40;;;8.10;68.00;;;;;;4978279;28;20026;-76
2023/05/25 02:20:25;;;;;;;5.63;1.77;;;8.10;68.00;;;;;;4975609;28;20840;-75
2023/05/25 02:22:51;;;;;;;6.90;2.13;;;8.00;68.20;;;;;;4961238;28;20026;-75
2023/05/25 02:25:16;;;;;;;8.30;2.35;;;8.00;68.20;;;;;;4976937;28;20022;-75
2023/05/25 02:27:42;;;;;;;7.88;2.35;;;8.00;68.30;;;;;;4961877;28;20053;-75
2023/05/25 02:30:08;;;;;;;4.05;2.08;;;8.00;68.30;;;;;;4978136;28;20053;-75
2023/05/25 02:32:34;;;;;;;3.85;2.30;;;8.00;68.40;;;;;;4961384;28;20105;-76
2023/05/25 02:35:00;;;;;;;7.70;2.25;;;8.00;68.50;;;;;;4973397;28;20018;-76
2023/05/25 02:37:25;;;;;;;9.40;2.10;;;8.00;68.70;;;;;;4963801;28;20026;-75
2023/05/25 02:39:51;;;;;;;5.13;2.67;;;8.00;68.70;;;;;;4974311;28;20089;-75
2023/05/25 02:42:16;;;;;;;7.05;2.30;;;7.90;68.70;;;;;;4943943;28;20027;-75
2023/05/25 02:44:47;;;;;;;6.72;2.08;;;7.90;68.70;;;;;;4975788;28;20492;-76
2023/05/25 02:47:20;;;;;;;3.97;2.00;;;7.90;68.70;;;;;;4975745;28;20015;-76
2023/05/25 02:49:45;;;;;;;7.05;2.38;;;7.90;68.80;;;;;;4960879;28;20038;-76
2023/05/25 02:52:11;;;;;;;5.50;1.90;;;7.90;68.80;;;;;;4979183;28;20041;-75
2023/05/25 02:54:36;;;;;;;5.47;2.15;;;7.90;69.00;;;;;;4974774;28;20034;-76
2023/05/25 02:57:03;;;;;;;7.20;2.40;;;7.90;69.10;;;;;;4960608;28;20065;-75
2023/05/25 02:59:29;;;;;;;5.50;2.15;;;7.80;69.10;;;;;;4960648;28;20711;-77
2023/05/25 03:01:54;;;;;;;6.10;2.20;;;7.80;69.10;;;;;;4960959;28;20634;-74
2023/05/25 03:04:20;;;;;;;5.90;2.50;;;7.80;69.10;;;;;;4977023;28;20025;-75
2023/05/25 03:06:46;;;;;;;4.30;2.42;;;7.80;69.20;;;;;;4977340;28;20061;-76
2023/05/25 03:09:12;;;;;;;5.72;2.00;;;7.80;69.40;;;;;;4976729;28;20018;-76
2023/05/25 03:11:37;;;;;;;6.53;2.20;;;7.70;69.40;;;;;;4977608;28;20110;-75
2023/05/25 03:14:03;;;;;;;4.40;2.22;;;7.80;69.60;;;;;;4975907;28;20519;-75
2023/05/25 03:16:28;;;;;;;4.32;1.95;;;7.70;69.50;;;;;;4962304;28;20599;-74
2023/05/25 03:18:54;;;;;;;5.93;2.40;;;7.70;69.50;;;;;;4961003;28;20053;-75
2023/05/25 03:21:21;;;;;;;5.90;2.15;;;7.70;69.60;;;;;;4977478;28;20065;-76
2023/05/25 03:23:47;;;;;;;5.40;2.65;;;7.60;69.60;;;;;;4984247;28;20042;-76
2023/05/25 03:26:12;;;;;;;6.85;2.47;;;7.60;69.70;;;;;;4978891;28;20038;-76
2023/05/25 03:28:38;;;;;;;7.20;2.50;;;7.60;69.80;;;;;;4980503;28;20042;-76
2023/05/25 03:31:03;;;;;;;5.50;2.60;;;7.60;69.90;;;;;;4981951;28;20034;-77
2023/05/25 03:33:29;;;;;;;6.28;2.30;;;7.60;70.00;;;;;;4966901;28;20034;-76
2023/05/25 03:35:55;;;;;;;5.43;2.35;;;7.50;70.00;;;;;;4984038;28;20030;-76
2023/05/25 03:38:20;;;;;;;7.60;2.28;;;7.50;70.10;;;;;;4983081;28;20068;-76
2023/05/25 03:40:46;;;;;;;4.45;2.03;;;7.50;70.10;;;;;;4966234;28;20137;-76
2023/05/25 03:43:11;;;;;;;6.90;2.38;;;7.50;70.20;;;;;;4979204;28;20141;-75
2023/05/25 03:45:37;;;;;;;6.45;2.40;;;7.60;70.30;;;;;;4982622;28;20393;-76
2023/05/25 03:48:02;;;;;;;4.60;2.58;;;7.60;70.40;;;;;;4979505;28;20205;-75
2023/05/25 03:50:28;;;;;;;7.18;2.70;;;7.60;70.40;;;;;;4968174;28;20047;-75
2023/05/25 03:52:53;;;;;;;12.27;2.60;;;7.50;70.30;;;;;;4964093;28;20050;-76
2023/05/25 03:55:19;;;;;;;5.47;2.42;;;7.50;70.40;;;;;;4966477;28;20030;-77
2023/05/25 03:57:44;;;;;;;4.03;2.00;;;7.50;70.40;;;;;;4947695;28;20034;-75
2023/05/25 04:00:11;;;;;;;7.18;1.90;;;7.50;70.50;;;;;;4946979;28;20089;-76
2023/05/25 04:02:36;;;;;;;5.25;2.28;;;7.50;70.60;;;;;;4964588;28;20031;-75
2023/05/25 04:05:02;;;;;;;6.93;2.60;;;7.50;70.70;;;;;;4956612;28;20063;-75
2023/05/25 04:07:29;;;;;;;8.80;2.55;;;7.50;70.80;;;;;;4961633;28;20024;-76
2023/05/25 04:09:58;;;;;;;5.05;2.58;;;7.50;70.90;;;;;;4961677;28;20022;-76
2023/05/25 04:12:24;;;;;;;5.38;1.88;;;7.50;70.90;;;;;;4961457;28;20054;-76
2023/05/25 04:14:49;;;;;;;4.93;2.30;;;7.50;71.00;;;;;;4947864;28;20069;-76
2023/05/25 04:17:16;;;;;;;4.82;1.90;;;7.50;71.00;;;;;;4961582;28;20409;-76
2023/05/25 04:19:41;;;;;;;3.40;1.95;;;7.50;71.10;;;;;;4962045;28;20058;-76
2023/05/25 04:22:07;;;;;;;4.60;2.30;;;7.50;71.10;;;;;;4959556;28;20103;-75
2023/05/25 04:24:33;;;;;;;5.05;2.38;;;7.50;71.20;;;;;;4962964;28;20073;-76
2023/05/25 04:26:58;;;;;;;5.72;2.33;;;7.60;71.30;;;;;;4974853;28;20528;-74
2023/05/25 04:29:24;;;;;;;2.00;1.73;;;7.50;71.20;;;;;;4963754;28;20506;-75
2023/05/25 04:31:50;;;;;;;5.00;2.60;;;7.60;71.30;;;;;;4964602;28;20031;-76
2023/05/25 04:34:15;;;;;;;5.03;2.28;;;7.60;71.30;;;;;;4960427;28;20019;-77
2023/05/25 04:36:42;;;;;;;3.70;2.22;;;7.60;71.40;;;;;;4964705;28;20035;-76
2023/05/25 04:39:08;;;;;;;5.78;2.35;;;7.70;71.50;;;;;;4963057;28;20489;-76
2023/05/25 04:41:34;;;;;;;6.63;2.60;;;7.70;71.40;;;;;;4961193;28;20308;-76
2023/05/25 04:44:00;;;;;;;2.92;1.98;;;7.70;71.50;;;;;;4961774;28;20133;-76
2023/05/25 04:46:25;;;;;;;3.35;2.22;;;7.70;71.50;;;;;;4946424;28;20375;-76
2023/05/25 04:48:51;;;;;;;2.83;2.17;;;7.80;71.50;;;;;;4960279;28;20501;-76
2023/05/25 04:51:16;;;;;;;5.82;2.30;;;7.80;71.50;;;;;;4980506;28;20436;-76
2023/05/25 04:53:42;;;;;;;7.05;2.58;;;7.80;71.50;;;;;;4980494;28;20584;-77
2023/05/25 04:56:07;;;;;;;5.15;2.60;;;7.90;71.50;;;;;;4977497;28;20053;-76
2023/05/25 04:58:33;;;;;;;4.22;2.13;;;7.90;71.60;;;;;;4977573;28;20026;-75
2023/05/25 05:00:59;;;;;;;4.43;2.00;;;7.90;71.50;;;;;;4962922;28;20038;-76
2023/05/25 05:03:24;;;;;;;6.57;3.03;;;8.00;71.60;;;;;;4979784;28;20026;-77
2023/05/25 05:05:50;;;;;;;6.18;2.42;;;8.00;71.60;;;;;;4975866;28;20039;-76
2023/05/25 05:08:15;;;;;;;7.00;2.90;;;8.10;71.80;;;;;;4964592;28;20378;-76
2023/05/25 05:10:41;;;;;;;5.03;2.35;;;8.10;71.80;;;;;;4979077;28;20572;-76
2023/05/25 05:13:06;;;;;;;5.85;3.28;;;8.20;71.80;;;;;;4975349;28;20034;-77
2023/05/25 05:15:32;;;;;;;7.75;3.50;;;8.20;71.80;;;;;;4979464;28;20030;-76
2023/05/25 05:17:58;;;;;;;11.07;3.35;;;8.20;71.90;;;;;;4977838;28;20030;-76
2023/05/25 05:20:23;;;;;;;11.02;3.50;;;8.30;72.00;;;;;;4977283;28;20049;-77
2023/05/25 05:22:49;;;;;;;7.40;3.38;;;8.40;72.10;;;;;;4961909;28;20030;-75
2023/05/25 05:25:14;;;;;;;9.75;3.17;;;8.40;72.10;;;;;;4963489;28;20026;-77
2023/05/25 05:27:40;;;;;;;7.82;2.90;;;8.50;72.20;;;;;;4978822;28;20075;-76
2023/05/25 05:30:06;;;;;;;8.25;2.90;;;8.60;72.10;;;;;;4978220;28;20434;-75
2023/05/25 05:32:32;;;;;;;7.15;3.13;;;8.60;72.00;;;;;;4980006;28;20113;-76
2023/05/25 05:34:58;;;;;;;10.70;3.35;;;8.70;71.90;;;;;;4978815;28;20068;-76
2023/05/25 05:37:23;;;;;;;10.93;3.38;;;8.70;71.90;;;;;;4962790;28;20039;-76
2023/05/25 05:39:51;;;;;;;10.48;3.30;;;8.80;71.80;;;;;;4979033;28;20541;-76
2023/05/25 05:42:16;;;;;;;15.20;4.15;;;8.90;71.90;;;;;;4979119;28;20023;-76
2023/05/25 05:44:42;;;;;;;6.97;3.40;;;8.90;71.90;;;;;;4979723;28;20041;-76
2023/05/25 05:47:07;;;;;;;10.15;3.03;;;9.00;72.00;;;;;;4977456;28;20042;-76
2023/05/25 05:49:33;;;;;;;10.95;3.40;;;9.10;72.00;;;;;;4975388;28;20070;-76
2023/05/25 05:51:58;;;;;;;13.93;3.80;;;9.20;71.90;;;;;;4979107;28;20049;-77
2023/05/25 05:54:26;;;;;;;12.75;3.47;;;9.30;71.90;;;;;;4965561;28;20030;-79
2023/05/25 05:57:19;;;;;;;12.32;3.60;;;9.40;71.90;;;;;;4975417;28;20030;-76
2023/05/25 05:59:45;;;;;;;14.80;3.40;;;9.50;72.50;;;;;;4959612;28;20043;-76
2023/05/25 06:02:11;;;;;;;5.05;2.85;;;9.60;71.90;;;;;;4976520;28;20045;-77
2023/05/25 06:04:37;;;;;;;15.65;4.28;;;9.70;71.70;;;;;;4978058;28;20029;-77
2023/05/25 06:07:02;;;;;;;10.02;3.25;;;9.80;71.70;;;;;;4977708;28;20053;-76
2023/05/25 06:09:28;;;;;;;10.25;3.78;;;9.90;71.60;;;;;;4978108;28;20042;-76
2023/05/25 06:11:53;;;;;;;8.57;3.15;;;10.00;71.40;;;;;;4992604;28;20504;-77
2023/05/25 06:14:19;;;;;;;11.45;3.78;;;10.10;71.40;;;;;;4980020;28;20077;-76
2023/05/25 06:16:44;;;;;;;9.15;3.88;;;10.20;71.30;;;;;;4977034;28;20033;-77
2023/05/25 06:19:10;;;;;;;8.32;3.80;;;10.30;71.30;;;;;;4979840;28;20069;-77
2023/05/25 06:21:36;;;;;;;16.42;3.85;;;10.40;71.10;;;;;;4974041;28;20133;-77
2023/05/25 06:24:02;;;;;;;8.00;3.60;;;10.60;71.10;;;;;;4978832;28;20058;-77
2023/05/25 06:26:27;;;;;;;15.25;4.50;;;10.70;71.10;;;;;;4977558;28;20126;-77
2023/05/25 06:28:53;;;;;;;14.32;4.07;;;10.80;70.90;;;;;;4962526;28;20049;-77
2023/05/25 06:31:18;;;;;;;10.30;3.90;;;10.90;70.80;;;;;;4979541;28;20101;-76
2023/05/25 06:33:44;;;;;;;10.70;3.97;;;11.10;70.60;;;;;;4977936;28;20049;-78
2023/05/25 06:36:10;;;;;;;9.77;4.10;;;11.20;70.50;;;;;;4977204;28;20129;-75
2023/05/25 06:38:36;;;;;;;8.70;3.33;;;11.40;70.50;;;;;;4977243;28;20120;-75
2023/05/25 06:41:03;;;;;;;8.05;3.00;;;11.50;70.40;;;;;;4979480;28;20140;-76
2023/05/25 06:43:30;;;;;;;9.98;3.60;;;11.60;70.10;;;;;;4976965;28;20026;-77
2023/05/25 06:45:56;;;;;;;9.45;3.25;;;11.80;70.00;;;;;;4977348;28;20496;-77
2023/05/25 06:48:21;;;;;;;8.98;3.75;;;11.90;70.60;;;;;;4975670;28;20022;-77
2023/05/25 06:50:47;;;;;;;9.82;3.22;;;12.10;69.60;;;;;;4991444;28;20757;-76
2023/05/25 06:53:13;;;;;;;6.00;3.28;;;12.30;69.40;;;;;;4960619;28;20034;-77
2023/05/25 06:55:38;;;;;;;7.28;2.63;;;12.40;69.20;;;;;;4975157;28;20041;-76
2023/05/25 06:58:04;;;;;;;6.05;2.70;;;12.60;69.00;;;;;;4978488;28;20030;-77
2023/05/25 07:00:29;;;;;;;6.53;2.83;;;12.70;68.80;;;;;;4975320;28;20036;-76
2023/05/25 07:02:55;;;;;;;5.47;2.53;;;12.90;68.60;;;;;;4976633;28;20540;-77
2023/05/25 07:05:21;;;;;;;8.43;2.78;;;13.10;68.40;;;;;;4978718;28;20065;-76
2023/05/25 07:07:46;;;;;;;6.18;2.45;;;13.20;68.00;;;;;;4976639;28;20037;-77
2023/05/25 07:10:12;;;;;;;9.70;2.60;;;13.40;67.60;;;;;;4978728;28;20034;-75
2023/05/25 07:12:37;;;;;;;6.57;2.35;;;13.50;67.30;;;;;;4992739;28;20473;-77
2023/05/25 07:15:03;;;;;;;6.63;2.60;;;13.70;67.10;;;;;;4978372;28;20049;-77
2023/05/25 07:17:30;;;;;;;8.95;2.95;;;13.90;66.80;;;;;;4975810;28;20042;-77
2023/05/25 07:19:55;;;;;;;8.30;2.53;;;14.00;66.40;;;;;;4976186;28;20042;-77
2023/05/25 07:22:22;;;;;;;7.10;2.60;;;14.20;66.00;;;;;;4978536;28;20030;-76
2023/05/25 07:24:48;;;;;;;6.88;2.40;;;14.30;65.70;;;;;;4945209;28;20018;-77
2023/05/25 07:27:13;;;;;;;7.97;2.75;;;14.50;65.40;;;;;;4961341;28;20501;-77
2023/05/25 07:29:39;;;;;;;6.70;3.05;;;14.60;64.80;;;;;;4959148;28;20037;-77
2023/05/25 07:32:05;;;;;;;6.20;2.35;;;14.80;64.40;;;;;;4946977;28;20115;-77
2023/05/25 07:34:32;;;;;;;7.45;2.42;;;15.00;64.20;;;;;;4976876;28;20092;-77
2023/05/25 07:36:57;;;;;;;10.98;2.58;;;15.10;63.90;;;;;;4978051;28;20033;-78
2023/05/25 07:39:23;;;;;;;8.85;2.60;;;15.30;63.50;;;;;;4959451;28;20401;-78
2023/05/25 07:41:48;;;;;;;5.50;2.13;;;15.40;63.10;;;;;;4978759;28;20496;-76
2023/05/25 07:44:14;;;;;;;7.05;3.03;;;15.60;62.90;;;;;;4978337;28;20033;-77
2023/05/25 07:46:39;;;;;;;5.65;2.50;;;15.70;62.50;;;;;;4976358;28;20672;-77
2023/05/25 07:49:10;;;;;;;7.65;2.65;;;15.90;62.20;;;;;;4977347;28;20053;-76
2023/05/25 07:51:36;;;;;;;6.30;2.17;;;16.00;61.80;;;;;;4974619;28;20563;-76
2023/05/25 07:54:01;;;;;;;5.28;2.42;;;16.20;61.40;;;;;;4960094;28;20035;-76
2023/05/25 07:56:27;;;;;;;4.68;2.00;;;16.40;61.10;;;;;;4961907;28;20037;-76
2023/05/25 07:58:53;;;;;;;10.90;2.65;;;16.50;60.70;;;;;;4983141;28;20038;-77
2023/05/25 08:01:18;;;;;;;7.40;2.45;;;16.70;60.40;;;;;;4979603;28;20080;-78
2023/05/25 08:03:44;;;;;;;5.13;2.55;;;16.90;60.20;;;;;;4979823;28;20045;-76
2023/05/25 08:06:09;;;;;;;5.07;2.55;;;17.10;59.90;;;;;;4959726;28;20021;-77
2023/05/25 08:08:36;;;;;;;5.97;2.03;;;17.20;59.50;;;;;;4971947;28;20027;-77
2023/05/25 08:11:01;;;;;;;5.68;2.40;;;17.40;59.00;;;;;;4943569;28;20169;-77
2023/05/25 08:13:27;;;;;;;6.25;2.55;;;17.50;58.80;;;;;;4974466;28;20030;-77
2023/05/25 08:15:52;;;;;;;7.53;2.00;;;17.70;58.60;;;;;;4982445;28;20033;-77
2023/05/25 08:18:18;;;;;;;6.63;2.25;;;17.80;58.30;;;;;;4979123;28;20049;-77
2023/05/25 08:20:44;;;;;;;8.65;2.47;;;18.00;58.00;;;;;;4978603;28;20046;-77
2023/05/25 08:23:10;;;;;;;7.22;2.20;;;18.10;57.80;;;;;;4962347;28;20030;-77
2023/05/25 08:25:35;;;;;;;4.72;2.50;;;18.30;57.60;;;;;;4974619;28;20042;-77
2023/05/25 08:28:01;;;;;;;4.95;2.60;;;18.50;57.20;;;;;;4980697;28;20026;-77
2023/05/25 08:30:26;;;;;;;6.60;2.30;;;18.60;56.90;;;;;;4981303;28;20029;-77
2023/05/25 08:32:52;;;;;;;7.55;2.95;;;18.80;56.50;;;;;;4977845;28;20030;-77
2023/05/25 08:35:18;;;;;;;4.78;2.13;;;19.00;56.20;;;;;;4981942;28;20038;-77
2023/05/25 08:37:44;;;;;;;5.68;2.20;;;19.20;55.90;;;;;;4978158;28;20018;-77
2023/05/25 08:40:15;;;;;;;7.57;2.83;;;19.30;55.40;;;;;;4980376;28;20563;-77
2023/05/25 08:42:44;;;;;;;7.72;2.00;;;19.50;54.70;;;;;;4962861;28;20030;-77
2023/05/25 08:45:10;;;;;;;8.40;2.47;;;19.60;55.20;;;;;;4964032;28;20104;-77
2023/05/25 08:47:43;;;;;;;11.77;2.60;;;19.70;54.30;;;;;;4962587;28;20690;-77
2023/05/25 08:50:10;;;;;;;8.57;2.63;;;19.80;53.80;;;;;;4978787;28;20588;-77
2023/05/25 08:52:37;;;;;;;7.03;1.90;;;20.00;53.60;;;;;;4977383;28;20037;-76
2023/05/25 08:55:07;;;;;;;4.95;1.75;;;20.10;53.40;;;;;;4964180;28;20033;-76
2023/05/25 08:57:58;;;;;;;6.05;1.80;;;20.20;53.00;;;;;;4972453;28;20045;-77
2023/05/25 09:00:39;;;;;;;4.93;2.53;;;20.40;52.30;;;;;;4988082;28;20042;-76
2023/05/25 09:03:09;;;;;;;4.68;1.95;;;20.70;51.70;;;;;;4963315;28;20037;-77
2023/05/25 09:05:35;;;;;;;9.80;2.05;;;20.80;51.90;;;;;;4982290;28;20030;-76
2023/05/25 09:08:05;;;;;;;7.85;1.92;;;21.00;51.60;;;;;;4993575;28;20404;-76
2023/05/25 09:10:35;;;;;;;6.55;2.13;;;21.20;51.20;;;;;;4976794;28;20759;-77
2023/05/25 09:13:00;;;;;;;5.65;2.20;;;21.40;50.80;;;;;;4977019;28;20057;-76
2023/05/25 09:15:26;;;;;;;8.48;2.30;;;21.60;50.40;;;;;;4975641;28;20505;-77
2023/05/25 09:17:51;;;;;;;4.03;2.00;;;21.70;50.10;;;;;;4978137;28;20038;-77
2023/05/25 09:20:17;;;;;;;6.13;2.53;;;21.80;49.80;;;;;;4975374;28;20026;-79
2023/05/25 09:22:43;;;;;;;5.35;2.00;;;22.00;49.40;;;;;;4976190;28;20509;-77
2023/05/25 09:25:09;;;;;;;5.97;2.40;;;22.20;49.20;;;;;;4977916;28;20908;-77
2023/05/25 09:27:38;;;;;;;4.28;1.98;;;22.40;49.00;;;;;;4976271;28;20030;-78
2023/05/25 09:30:04;;;;;;;8.75;2.90;;;22.50;48.30;;;;;;4978258;28;20033;-77
2023/05/25 09:32:30;;;;;;;6.68;2.60;;;22.60;47.70;;;;;;4974400;28;20030;-74
2023/05/25 09:34:56;;;;;;;9.70;2.63;;;22.70;47.50;;;;;;4961452;28;20409;-77
2023/05/25 09:37:22;;;;;;;4.07;1.83;;;22.80;47.30;;;;;;4946762;28;20022;-77
2023/05/25 09:39:50;;;;;;;5.07;2.05;;;22.90;47.20;;;;;;4976737;28;20892;-77
2023/05/25 09:42:15;;;;;;;5.22;2.20;;;23.10;46.80;;;;;;4975897;28;20034;-78
2023/05/25 09:44:44;;;;;;;5.43;2.22;;;23.20;46.50;;;;;;4977172;28;20031;-77
2023/05/25 09:47:09;;;;;;;6.32;2.53;;;23.30;46.30;;;;;;4977487;28;20033;-77
2023/05/25 09:49:35;;;;;;;7.82;3.25;;;23.40;46.00;;;;;;4954522;28;20082;-78
2023/05/25 09:52:00;;;;;;;7.45;2.75;;;23.50;45.80;;;;;;4958171;28;20445;-78
2023/05/25 09:54:26;;;;;;;6.47;2.65;;;23.60;45.60;;;;;;4937849;28;20098;-74
2023/05/25 09:56:51;;;;;;;12.80;2.83;;;23.80;45.30;;;;;;4941162;28;20038;-76
2023/05/25 09:59:17;;;;;;;7.28;2.72;;;23.90;45.10;;;;;;4945762;28;20510;-77
2023/05/25 10:01:45;;;;;;;6.97;2.00;;;24.00;45.10;;;;;;4961252;28;20094;-77
2023/05/25 10:04:14;;;;;;;4.25;2.10;;;24.20;44.90;;;;;;4958411;28;20531;-76
2023/05/25 10:06:40;;;;;;;5.22;2.53;;;24.40;44.80;;;;;;4944909;28;20094;-77
2023/05/25 10:09:05;;;;;;;8.07;2.50;;;24.70;44.40;;;;;;4960934;28;20117;-76
2023/05/25 10:11:31;;;;;;;4.68;2.38;;;24.80;44.10;;;;;;4959975;28;20030;-77
2023/05/25 10:13:59;;;;;;;5.90;2.78;;;24.90;43.90;;;;;;4942863;28;20026;-77
2023/05/25 10:16:25;;;;;;;6.70;2.35;;;25.10;43.70;;;;;;4960148;28;20018;-77
2023/05/25 10:18:58;;;;;;;7.35;2.83;;;25.20;43.10;;;;;;4940964;28;20030;-77
2023/05/25 10:21:24;;;;;;;5.85;2.80;;;25.30;42.40;;;;;;4943245;28;20053;-78
2023/05/25 10:23:55;;;;;;;2.78;1.92;;;25.40;42.60;;;;;;4944669;28;20030;-77
2023/05/25 10:26:23;;;;;;;3.53;2.38;;;25.50;42.20;;;;;;4929383;28;20023;-77
2023/05/25 10:28:55;;;;;;;4.13;2.22;;;25.60;42.30;;;;;;4957153;28;20038;-79
2023/05/25 10:31:20;;;;;;;6.00;2.40;;;25.70;41.70;;;;;;4959114;28;20057;-76
2023/05/25 10:33:46;;;;;;;5.70;2.50;;;25.80;41.80;;;;;;4958797;28;20122;-77
2023/05/25 10:36:14;;;;;;;5.60;2.33;;;25.80;41.50;;;;;;4947971;28;20026;-75
2023/05/25 10:38:40;;;;;;;3.45;2.47;;;25.90;41.30;;;;;;4943598;28;20023;-75
2023/05/25 10:41:07;;;;;;;4.55;2.30;;;26.00;41.30;;;;;;4964735;28;20023;-76
2023/05/25 10:43:33;;;;;;;6.25;2.20;;;26.20;41.20;;;;;;4959510;28;20675;-77
2023/05/25 10:45:58;;;;;;;6.40;2.70;;;26.30;41.10;;;;;;4961963;28;20038;-77
2023/05/25 10:48:33;;;;;;;7.15;2.47;;;26.50;40.70;;;;;;4959950;28;20034;-77
2023/05/25 10:50:59;;;;;;;8.32;2.85;;;26.60;40.60;;;;;;4941706;28;20043;-76
2023/05/25 10:53:24;;;;;;;5.18;2.45;;;26.70;40.50;;;;;;4955250;28;20034;-76
2023/05/25 10:55:50;;;;;;;4.22;2.35;;;26.80;40.10;;;;;;4956989;28;20035;-77
2023/05/25 10:58:17;;;;;;;5.10;2.20;;;26.90;39.90;;;;;;4959392;28;20027;-76
2023/05/25 11:00:42;;;;;;;4.22;2.08;;;27.10;39.70;;;;;;4955412;28;20050;-77
2023/05/25 11:03:08;;;;;;;5.20;2.30;;;27.30;39.30;;;;;;4958626;28;21347;-77
2023/05/25 11:05:35;;;;;;;6.05;2.75;;;27.40;38.80;;;;;;4957114;28;20078;-77
2023/05/25 11:08:01;;;;;;;7.30;2.53;;;27.40;38.40;;;;;;4958272;28;20058;-77
2023/05/25 11:10:51;;;;;;;7.18;2.85;;;27.50;38.40;;;;;;4943688;28;20118;-77
2023/05/25 11:13:42;;;;;;;5.63;2.20;;;27.50;36.60;;;;;;4955684;28;20027;-77
2023/05/25 11:16:18;;;;;;;4.03;2.20;;;27.60;37.00;;;;;;4956844;28;20023;-76
2023/05/25 11:18:48;;;;;;;4.50;2.17;;;27.80;37.50;;;;;;4925692;28;20061;-77
2023/05/25 11:21:41;;;;;;;4.72;2.65;;;27.90;37.90;;;;;;4940673;28;20122;-76
2023/05/25 11:24:11;;;;;;;5.43;2.30;;;28.10;36.50;;;;;;4957961;28;20066;-77
2023/05/25 11:26:37;;;;;;;3.53;2.20;;;28.40;37.10;;;;;;4939440;28;20792;-76
2023/05/25 11:29:13;;;;;;;3.60;2.28;;;28.50;37.00;;;;;;4958116;28;20498;-77
2023/05/25 11:31:39;;;;;;;2.80;1.98;;;28.70;36.10;;;;;;4937935;28;20033;-77
2023/05/25 11:34:05;;;;;;;4.32;2.63;;;28.90;36.90;;;;;;4959414;28;20026;-76
2023/05/25 11:36:32;;;;;;;4.45;2.13;;;29.10;36.60;;;;;;4971138;28;20421;-77
2023/05/25 11:39:02;;;;;;;3.90;2.13;;;29.20;36.30;;;;;;4925272;28;20108;-76
2023/05/25 11:41:28;;;;;;;4.03;2.53;;;29.30;36.10;;;;;;4940739;28;20073;-77
2023/05/25 11:43:53;;;;;;;2.63;2.22;;;29.40;35.90;;;;;;4956782;28;20022;-76
2023/05/25 11:46:20;;;;;;;4.60;2.25;;;29.50;35.80;;;;;;4955441;28;20019;-76
2023/05/25 11:48:50;;;;;;;11.93;2.58;;;29.50;35.50;;;;;;4962504;28;20138;-77
2023/05/25 11:51:16;;;;;;;5.60;2.35;;;29.60;34.90;;;;;;5000582;28;20645;-77
2023/05/25 11:53:45;;;;;;;5.13;2.03;;;29.70;35.00;;;;;;4964327;28;20038;-77
2023/05/25 11:56:12;;;;;;;3.97;2.53;;;29.80;34.70;;;;;;4967038;28;20097;-76
2023/05/25 11:58:38;;;;;;;5.13;2.38;;;29.90;34.30;;;;;;4964533;28;20029;-76
2023/05/25 12:01:17;;;;;;;3.80;2.28;;;29.80;33.90;;;;;;4983824;28;20037;-77
2023/05/25 12:03:43;;;;;;;3.90;2.08;;;29.80;32.90;;;;;;4983169;28;20134;-77
2023/05/25 12:06:28;;;;;;;5.63;2.65;;;29.80;33.50;;;;;;4969129;28;20022;-76
2023/05/25 12:08:54;;;;;;;5.38;2.40;;;29.90;32.30;;;;;;4981448;28;20026;-77
2023/05/25 12:11:32;;;;;;;2.83;2.03;;;30.10;33.50;;;;;;4996999;28;20032;-77
2023/05/25 12:13:58;;;;;;;4.13;2.13;;;30.20;32.70;;;;;;4983203;28;20567;-77
2023/05/25 12:16:24;;;;;;;5.68;2.50;;;30.40;33.30;;;;;;4966759;28;20037;-77
2023/05/25 12:18:52;;;;;;;4.63;2.75;;;30.50;33.20;;;;;;4999204;28;20029;-76
2023/05/25 12:21:19;;;;;;;3.05;2.03;;;30.70;33.00;;;;;;4968412;28;20507;-78
2023/05/25 12:23:44;;;;;;;3.30;2.42;;;30.90;33.00;;;;;;4967147;28;20064;-77
2023/05/25 12:26:15;;;;;;;3.45;2.22;;;31.00;33.00;;;;;;4984176;28;20120;-77
2023/05/25 12:28:56;;;;;;;4.03;2.30;;;31.10;32.50;;;;;;4969694;28;20033;-77
2023/05/25 12:31:22;;;;;;;4.53;2.15;;;31.20;32.60;;;;;;4986288;28;20026;-78
2023/05/25 12:34:03;;;;;;;3.72;2.70;;;31.30;32.50;;;;;;4982721;28;20045;-77
2023/05/25 12:36:41;;;;;;;2.58;2.10;;;31.30;30.70;;;;;;4997850;28;20026;-76
2023/05/25 12:39:07;;;;;;;5.15;2.15;;;31.40;31.60;;;;;;4966146;28;20565;-77
2023/05/25 12:41:46;;;;;;;4.60;2.63;;;31.50;32.00;;;;;;4967349;28;20397;-77
2023/05/25 12:44:37;;;;;;;4.40;2.50;;;31.50;30.60;;;;;;4995289;28;20026;-77
2023/05/25 12:47:09;;;;;;;4.13;2.45;;;31.50;30.40;;;;;;4980313;28;20034;-77
2023/05/25 12:49:35;;;;;;;3.45;2.20;;;31.50;30.70;;;;;;4997703;28;20044;-77
2023/05/25 12:52:01;;;;;;;3.05;2.33;;;31.50;31.00;;;;;;4983818;28;20029;-78